createdAt,value
2023-02-06T06:01:50.579Z,102537.47
2023-02-06T06:04:17.214Z,102523.41
2023-02-06T06:06:44.471Z,102522.63
2023-02-06T06:09:11.307Z,102520.78
2023-02-06T06:11:38.595Z,102522.59
2023-02-06T06:14:06.074Z,102514.72
2023-02-06T06:16:33.287Z,102515.50
2023-02-06T06:18:59.838Z,102521.84
2023-02-06T06:21:26.958Z,102518.44
2023-02-06T06:23:53.635Z,102518.44
2023-02-06T06:26:20.776Z,102524.66
2023-02-06T06:28:48.344Z,102525.56
2023-02-06T06:31:15.640Z,102527.06
2023-02-06T06:33:42.248Z,102540.94
2023-02-06T06:36:11.862Z,102546.06
2023-02-06T06:38:40.245Z,102547.72
2023-02-06T06:41:07.724Z,102552.78
2023-02-06T06:43:34.460Z,102553.00
2023-02-06T06:46:02.121Z,102559.28
2023-02-06T06:48:28.829Z,102558.41
2023-02-06T06:50:56.015Z,102558.34
2023-02-06T06:53:22.537Z,102551.31
2023-02-06T06:55:49.783Z,102560.88
2023-02-06T06:58:16.349Z,102559.03
2023-02-06T07:00:43.632Z,102559.19
2023-02-06T07:03:11.659Z,102558.44
2023-02-06T07:05:39.614Z,102551.44
2023-02-06T07:08:06.278Z,102547.97
2023-02-06T07:10:33.597Z,102549.75
2023-02-06T07:13:00.200Z,102555.91
2023-02-06T07:15:27.633Z,102552.25
2023-02-06T07:17:54.142Z,102549.63
2023-02-06T07:20:21.441Z,102559.28
2023-02-06T07:22:49.629Z,102549.63
2023-02-06T07:25:20.628Z,102546.19
2023-02-06T07:27:47.783Z,102555.25
2023-02-06T07:30:15.372Z,102544.81
2023-02-06T07:32:41.879Z,102541.28
2023-02-06T07:35:09.305Z,102545.47
2023-02-06T07:37:35.841Z,102543.69
2023-02-06T07:40:03.231Z,102553.44
2023-02-06T07:42:29.794Z,102556.25
2023-02-06T07:45:01.096Z,102563.31
2023-02-06T07:47:27.642Z,102565.47
2023-02-06T07:49:54.777Z,102567.38
2023-02-06T07:52:22.347Z,102563.00
2023-02-06T07:54:49.479Z,102567.47
2023-02-06T07:57:16.898Z,102564.03
2023-02-06T07:59:44.058Z,102564.19
2023-02-06T08:02:12.365Z,102565.28
2023-02-06T08:04:39.649Z,102557.56
2023-02-06T08:07:07.161Z,102554.31
2023-02-06T08:09:34.286Z,102549.97
2023-02-06T08:12:00.807Z,102550.94
2023-02-06T08:14:28.839Z,102551.56
2023-02-06T08:16:55.427Z,102552.16
2023-02-06T08:19:22.718Z,102547.69
2023-02-06T08:21:49.873Z,102547.94
2023-02-06T08:24:17.161Z,102554.31
2023-02-06T08:26:43.910Z,102550.84
2023-02-06T08:29:11.774Z,102560.03
2023-02-06T08:31:40.806Z,102558.44
2023-02-06T08:34:12.532Z,102551.56
2023-02-06T08:36:39.565Z,102546.53
2023-02-06T08:39:06.857Z,102547.63
2023-02-06T08:41:39.181Z,102546.91
2023-02-06T08:44:11.938Z,102553.34
2023-02-06T08:46:39.411Z,102558.00
2023-02-06T08:49:11.513Z,102565.97
2023-02-06T08:51:38.168Z,102570.63
2023-02-06T08:54:08.207Z,102571.69
2023-02-06T08:56:35.621Z,102572.50
2023-02-06T08:59:02.790Z,102579.69
2023-02-06T09:01:31.634Z,102586.94
2023-02-06T09:04:01.515Z,102581.81
2023-02-06T09:06:28.781Z,102585.38
2023-02-06T09:08:57.321Z,102589.56
2023-02-06T09:11:25.640Z,102585.53
2023-02-06T09:13:56.132Z,102574.88
2023-02-06T09:16:24.009Z,102566.25
2023-02-06T09:18:54.199Z,102572.47
2023-02-06T09:21:25.880Z,102568.28
2023-02-06T09:23:56.861Z,102558.84
2023-02-06T09:26:29.113Z,102567.53
2023-02-06T09:28:58.774Z,102563.19
2023-02-06T09:31:26.960Z,102571.06
2023-02-06T09:33:54.227Z,102561.88
2023-02-06T09:36:21.837Z,102559.69
2023-02-06T09:38:52.181Z,102552.22
2023-02-06T09:41:40.527Z,102558.25
2023-02-06T09:44:10.372Z,102548.44
2023-02-06T09:46:49.418Z,102547.59
2023-02-06T09:49:25.747Z,102536.97
2023-02-06T09:51:52.242Z,102542.06
2023-02-06T09:54:49.622Z,102542.75
2023-02-06T09:57:25.674Z,102541.91
2023-02-06T10:00:24.269Z,102535.41
2023-02-06T10:03:02.396Z,102531.34
2023-02-06T10:05:59.862Z,102525.44
2023-02-06T10:08:34.558Z,102531.75
2023-02-06T10:11:09.533Z,102533.91
2023-02-06T10:13:49.910Z,102525.25
2023-02-06T10:16:26.214Z,102518.16
2023-02-06T10:18:57.448Z,102516.44
2023-02-06T10:21:35.968Z,102518.19
2023-02-06T10:24:19.163Z,102516.53
2023-02-06T10:26:47.875Z,102514.81
2023-02-06T10:29:23.972Z,102517.44
2023-02-06T10:31:59.537Z,102517.44
2023-02-06T10:34:54.696Z,102515.03
2023-02-06T10:37:37.918Z,102512.56
2023-02-06T10:40:27.996Z,102517.00
2023-02-06T10:43:25.543Z,102513.63
2023-02-06T10:45:59.885Z,102507.63
2023-02-06T10:48:35.489Z,102512.91
2023-02-06T10:51:30.090Z,102517.28
2023-02-06T10:54:25.327Z,102514.72
2023-02-06T10:56:55.600Z,102519.19
2023-02-06T10:59:31.336Z,102506.94
2023-02-06T11:02:15.955Z,102513.22
2023-02-06T11:04:52.675Z,102507.00
2023-02-06T11:07:27.167Z,102515.78
2023-02-06T11:09:54.540Z,102520.22
2023-02-06T11:12:27.558Z,102514.19
2023-02-06T11:14:57.933Z,102514.25
2023-02-06T11:17:28.227Z,102509.94
2023-02-06T11:20:05.590Z,102504.84
2023-02-06T11:22:38.899Z,102498.84
2023-02-06T11:25:31.685Z,102492.69
2023-02-06T11:28:00.480Z,102495.28
2023-02-06T11:30:40.458Z,102497.03
2023-02-06T11:33:21.650Z,102486.56
2023-02-06T11:35:52.985Z,102478.75
2023-02-06T11:38:22.891Z,102476.28
2023-02-06T11:41:07.374Z,102469.41
2023-02-06T11:43:48.853Z,102472.13
2023-02-06T11:46:19.757Z,102470.25
2023-02-06T11:49:01.576Z,102474.66
2023-02-06T11:52:00.021Z,102480.00
2023-02-06T11:54:34.089Z,102484.47
2023-02-06T11:57:08.118Z,102486.38
2023-02-06T11:59:52.411Z,102483.94
2023-02-06T12:02:29.464Z,102471.75
2023-02-06T12:05:12.163Z,102469.25
2023-02-06T12:08:04.482Z,102465.00
2023-02-06T12:10:39.069Z,102465.06
2023-02-06T12:13:28.342Z,102465.16
2023-02-06T12:15:58.891Z,102467.03
2023-02-06T12:18:29.066Z,102460.97
2023-02-06T12:21:08.677Z,102461.91
2023-02-06T12:23:43.078Z,102469.91
2023-02-06T12:26:15.309Z,102465.56
2023-02-06T12:28:57.579Z,102464.81
2023-02-06T12:31:44.468Z,102447.25
2023-02-06T12:34:28.738Z,102435.97
2023-02-06T12:37:16.280Z,102439.53
2023-02-06T12:39:45.425Z,102438.72
2023-02-06T12:42:39.587Z,102441.44
2023-02-06T12:45:16.604Z,102443.28
2023-02-06T12:47:56.617Z,102453.94
2023-02-06T12:50:25.239Z,102443.47
2023-02-06T12:53:20.422Z,102441.00
2023-02-06T12:56:04.470Z,102440.25
2023-02-06T12:58:48.037Z,102446.47
2023-02-06T13:01:30.169Z,102450.09
2023-02-06T13:04:05.925Z,102454.56
2023-02-06T13:06:46.733Z,102452.75
2023-02-06T13:09:19.795Z,102452.00
2023-02-06T13:11:47.664Z,102452.94
2023-02-06T13:14:27.549Z,102441.47
2023-02-06T13:17:11.936Z,102440.50
2023-02-06T13:19:41.414Z,102443.03
2023-02-06T13:22:08.472Z,102442.16
2023-02-06T13:24:36.507Z,102428.09
2023-02-06T13:27:09.664Z,102425.56
2023-02-06T13:29:39.845Z,102428.31
2023-02-06T13:32:16.132Z,102428.34
2023-02-06T13:34:44.028Z,102423.13
2023-02-06T13:37:21.630Z,102417.91
2023-02-06T13:40:09.408Z,102423.25
2023-02-06T13:43:00.396Z,102417.16
2023-02-06T13:45:57.109Z,102421.53
2023-02-06T13:49:01.931Z,102423.34
2023-02-06T13:51:34.480Z,102430.50
2023-02-06T13:54:33.722Z,102427.09
2023-02-06T13:57:18.176Z,102432.50
2023-02-06T13:59:50.659Z,102436.03
2023-02-06T14:02:23.351Z,102432.50
2023-02-06T14:04:51.523Z,102435.31
2023-02-06T14:07:27.620Z,102432.66
2023-02-06T14:10:18.469Z,102434.44
2023-02-06T14:13:09.288Z,102431.91
2023-02-06T14:16:11.243Z,102439.78
2023-02-06T14:18:44.510Z,102429.22
2023-02-06T14:21:44.449Z,102436.28
2023-02-06T14:24:19.953Z,102427.38
2023-02-06T14:26:55.572Z,102416.75
2023-02-06T14:29:47.938Z,102415.66
2023-02-06T14:32:17.481Z,102420.78
2023-02-06T14:35:09.063Z,102416.31
2023-02-06T14:38:06.932Z,102433.91
2023-02-06T14:40:41.548Z,102426.81
2023-02-06T14:43:16.952Z,102417.91
2023-02-06T14:46:04.220Z,102413.50
2023-02-06T14:49:18.999Z,102425.88
2023-02-06T14:51:51.164Z,102428.38
2023-02-06T14:54:31.813Z,102428.09
2023-02-06T14:57:01.186Z,102428.84
2023-02-06T14:59:28.635Z,102428.81
2023-02-06T15:01:56.950Z,102429.59
2023-02-06T15:04:30.802Z,102424.19
2023-02-06T15:07:02.906Z,102428.56
2023-02-06T15:09:35.589Z,102424.00
2023-02-06T15:12:16.522Z,102419.56
2023-02-06T15:14:52.200Z,102418.53
2023-02-06T15:17:21.135Z,102410.63
2023-02-06T15:19:48.679Z,102409.69
2023-02-06T15:22:21.455Z,102404.28
2023-02-06T15:24:48.578Z,102406.84
2023-02-06T15:27:18.092Z,102407.66
2023-02-06T15:29:52.328Z,102405.91
2023-02-06T15:32:33.150Z,102412.88
2023-02-06T15:35:01.623Z,102411.09
2023-02-06T15:37:33.368Z,102406.72
2023-02-06T15:40:25.262Z,102410.09
2023-02-06T15:42:53.320Z,102419.69
2023-02-06T15:45:24.533Z,102412.66
2023-02-06T15:47:53.754Z,102412.53
2023-02-06T15:50:25.232Z,102409.81
2023-02-06T15:52:51.874Z,102408.00
2023-02-06T15:55:52.701Z,102414.00
2023-02-06T15:58:20.869Z,102422.72
2023-02-06T16:00:55.682Z,102410.28
2023-02-06T16:03:27.309Z,102414.59
2023-02-06T16:05:56.337Z,102421.56
2023-02-06T16:08:28.582Z,102420.53
2023-02-06T16:11:30.269Z,102407.97
2023-02-06T16:13:57.991Z,102412.28
2023-02-06T16:16:26.608Z,102403.34
2023-02-06T16:18:56.434Z,102405.84
2023-02-06T16:21:28.008Z,102409.28
2023-02-06T16:24:03.398Z,102414.47
2023-02-06T16:26:32.672Z,102417.81
2023-02-06T16:29:05.003Z,102411.47
2023-02-06T16:31:35.190Z,102413.06
2023-02-06T16:34:13.129Z,102416.44
2023-02-06T16:36:39.707Z,102421.53
2023-02-06T16:39:06.900Z,102416.19
2023-02-06T16:41:35.963Z,102420.41
2023-02-06T16:44:07.230Z,102418.53
2023-02-06T16:46:33.947Z,102420.13
2023-02-06T16:49:00.881Z,102424.41
2023-02-06T16:51:30.063Z,102417.22
2023-02-06T16:53:58.375Z,102420.59
2023-02-06T16:56:25.033Z,102419.56
2023-02-06T16:58:52.228Z,102425.63
2023-02-06T17:01:25.645Z,102419.28
2023-02-06T17:03:53.573Z,102434.03
2023-02-06T17:06:23.818Z,102428.69
2023-02-06T17:08:53.340Z,102427.66
2023-02-06T17:11:20.018Z,102426.69
2023-02-06T17:13:47.303Z,102432.72
2023-02-06T17:16:21.087Z,102431.69
2023-02-06T17:18:49.562Z,102428.88
2023-02-06T17:21:18.407Z,102434.06
2023-02-06T17:23:48.268Z,102434.75
2023-02-06T17:26:18.191Z,102432.06
2023-02-06T17:28:46.345Z,102430.19
2023-02-06T17:31:13.214Z,102430.19
2023-02-06T17:33:40.662Z,102430.09
2023-02-06T17:36:13.101Z,102431.69
2023-02-06T17:38:40.310Z,102426.31
2023-02-06T17:41:06.884Z,102426.19
2023-02-06T17:43:36.441Z,102440.09
2023-02-06T17:46:06.340Z,102431.22
2023-02-06T17:48:36.696Z,102425.06
2023-02-06T17:51:04.999Z,102422.22
2023-02-06T17:53:32.431Z,102437.03
2023-02-06T17:56:05.262Z,102427.31
2023-02-06T17:58:32.706Z,102431.56
2023-02-06T18:00:59.471Z,102432.38
2023-02-06T18:03:26.827Z,102428.78
2023-02-06T18:06:00.422Z,102433.84
2023-02-06T18:08:28.899Z,102430.31
2023-02-06T18:10:56.017Z,102435.44
2023-02-06T18:13:24.625Z,102430.84
2023-02-06T18:15:53.854Z,102438.69
2023-02-06T18:18:22.749Z,102440.25
2023-02-06T18:20:49.720Z,102427.97
2023-02-06T18:23:19.459Z,102433.09
2023-02-06T18:25:46.095Z,102438.25
2023-02-06T18:28:15.132Z,102436.47
2023-02-06T18:30:42.274Z,102438.13
2023-02-06T18:33:11.510Z,102431.75
2023-02-06T18:35:44.849Z,102435.22
2023-02-06T18:38:13.397Z,102439.50
2023-02-06T18:40:41.307Z,102446.41
2023-02-06T18:43:08.507Z,102444.59
2023-02-06T18:45:37.722Z,102448.84
2023-02-06T18:48:08.025Z,102450.50
2023-02-06T18:50:38.202Z,102452.94
2023-02-06T18:53:05.589Z,102453.81
2023-02-06T18:55:34.863Z,102446.59
2023-02-06T18:58:03.323Z,102442.13
2023-02-06T19:00:30.387Z,102442.13
2023-02-06T19:02:58.740Z,102447.31
2023-02-06T19:05:25.441Z,102450.69
2023-02-06T19:07:53.785Z,102448.81
2023-02-06T19:10:21.523Z,102460.97
2023-02-06T19:12:48.993Z,102466.91
2023-02-06T19:15:16.173Z,102467.88
2023-02-06T19:17:43.649Z,102462.41
2023-02-06T19:20:11.462Z,102474.44
2023-02-06T19:22:39.073Z,102472.59
2023-02-06T19:25:10.601Z,102469.88
2023-02-06T19:27:39.111Z,102476.81
2023-02-06T19:30:07.784Z,102479.16
2023-02-06T19:32:35.296Z,102473.72
2023-02-06T19:35:03.253Z,102473.59
2023-02-06T19:37:30.585Z,102476.09
2023-02-06T19:39:57.206Z,102477.69
2023-02-06T19:42:24.741Z,102474.94
2023-02-06T19:44:54.041Z,102469.78
2023-02-06T19:47:21.741Z,102464.38
2023-02-06T19:49:52.414Z,102462.47
2023-02-06T19:52:20.707Z,102469.25
2023-02-06T19:54:47.745Z,102471.81
2023-02-06T19:57:16.227Z,102476.13
2023-02-06T19:59:42.804Z,102472.44
2023-02-06T20:02:14.512Z,102475.63
2023-02-06T20:04:41.419Z,102478.97
2023-02-06T20:07:08.785Z,102483.25
2023-02-06T20:09:36.455Z,102477.78
2023-02-06T20:12:03.898Z,102486.19
2023-02-06T20:14:30.550Z,102494.88
2023-02-06T20:16:57.825Z,102504.38
2023-02-06T20:19:27.029Z,102504.25
2023-02-06T20:21:57.385Z,102512.78
2023-02-06T20:24:27.845Z,102516.13
2023-02-06T20:26:58.230Z,102519.34
2023-02-06T20:29:34.623Z,102518.41
2023-02-06T20:32:03.078Z,102513.00
2023-02-06T20:34:29.804Z,102506.00
2023-02-06T20:36:57.284Z,102517.09
2023-02-06T20:39:24.382Z,102521.09
2023-02-06T20:41:51.910Z,102523.59
2023-02-06T20:44:19.771Z,102519.09
2023-02-06T20:46:47.742Z,102523.25
2023-02-06T20:49:20.956Z,102525.72
2023-02-06T20:51:49.652Z,102534.31
2023-02-06T20:54:17.913Z,102531.53
2023-02-06T20:56:45.785Z,102532.38
2023-02-06T20:59:18.172Z,102545.31
2023-02-06T21:01:45.524Z,102545.19
2023-02-06T21:04:14.661Z,102527.53
2023-02-06T21:06:42.221Z,102531.81
2023-02-06T21:09:10.185Z,102527.28
2023-02-06T21:11:41.153Z,102532.50
2023-02-06T21:14:08.624Z,102534.06
2023-02-06T21:16:40.574Z,102528.66
2023-02-06T21:19:09.795Z,102532.81
2023-02-06T21:21:38.071Z,102530.06
2023-02-06T21:24:05.503Z,102526.56
2023-02-06T21:26:33.365Z,102533.44
2023-02-06T21:29:02.301Z,102528.06
